Time,TemperatureF,DewpointF,PressureIn,WindDirection,WindDirectionDegrees,WindSpeedMPH,WindSpeedGustMPH,Humidity,HourlyPrecipIn,Conditions,Clouds,dailyrainin,SolarRadiationWatts/m^2,SoftwareType,DateUTC
2013-02-02 00:11:00,33.0,30.0,-100.00,ENE,65,2.0,3.0,86,-99.99,,,0.00,0.000000,,2013-02-02 08:11:00,
2013-02-02 01:11:00,31.0,29.0,-100.00,ENE,68,2.0,4.0,89,-99.99,,,0.00,0.000000,,2013-02-02 09:11:00,
2013-02-02 02:11:00,30.0,27.0,-100.00,ENE,72,0.0,0.0,89,-99.99,,,0.00,0.000000,,2013-02-02 10:11:00,
2013-02-02 03:11:00,30.0,28.0,-100.00,SE,138,0.0,3.0,92,-99.99,,,0.00,0.000000,,2013-02-02 11:11:00,
2013-02-02 04:11:00,28.0,26.0,-100.00,East,92,0.0,1.0,93,-99.99,,,0.00,0.000000,,2013-02-02 12:11:00,
2013-02-02 05:11:00,28.0,25.0,-100.00,East,91,3.0,4.0,89,-99.99,,,0.00,0.000000,,2013-02-02 13:11:00,
2013-02-02 06:11:00,28.0,25.0,-100.00,South,179,0.0,4.0,89,-99.99,,,0.00,0.000000,,2013-02-02 14:11:00,
2013-02-02 07:12:00,26.0,24.0,-100.00,East,101,2.0,3.0,90,-99.99,,,0.00,0.000000,,2013-02-02 15:12:00,
2013-02-02 08:11:00,27.0,24.0,-100.00,North,0,0.0,0.0,90,-99.99,,,0.00,1.160000,,2013-02-02 16:11:00,
2013-02-02 09:11:00,29.0,26.0,-100.00,North,0,0.0,0.0,87,-99.99,,,0.00,109.129997,,2013-02-02 17:11:00,
2013-02-02 10:12:00,34.0,29.0,-100.00,ESE,102,2.0,4.0,81,-99.99,,,0.00,248.940002,,2013-02-02 18:12:00,
2013-02-02 11:41:00,42.0,35.0,-100.00,WNW,289,2.0,4.0,74,-99.99,,,0.00,431.410004,,2013-02-02 19:41:00,
2013-02-02 11:52:00,42.0,35.0,-100.00,WNW,289,2.0,4.0,74,-99.99,,,0.00,431.410004,,2013-02-02 19:52:00,
2013-02-02 12:01:00,42.0,35.0,-100.00,WNW,289,2.0,4.0,74,-99.99,,,0.00,431.410004,,2013-02-02 20:01:00,
2013-02-02 12:11:00,42.0,35.0,-100.00,WNW,289,2.0,4.0,74,-99.99,,,0.00,431.410004,,2013-02-02 20:11:00,
2013-02-02 13:11:00,48.0,37.0,-100.00,ESE,107,4.0,9.0,66,-99.99,,,0.00,472.779999,,2013-02-02 21:11:00,
2013-02-02 14:11:00,49.0,37.0,-100.00,ESE,114,6.0,9.0,64,-99.99,,,0.00,426.880005,,2013-02-02 22:11:00,
2013-02-02 15:11:00,48.0,36.0,-100.00,SE,124,7.0,9.0,62,-99.99,,,0.00,309.260010,,2013-02-02 23:11:00,
2013-02-02 16:11:00,48.0,35.0,-100.00,ESE,118,5.0,7.0,58,-99.99,,,0.00,192.000000,,2013-02-03 00:11:00,
2013-02-02 17:11:00,46.0,36.0,-100.00,ESE,114,4.0,6.0,68,-99.99,,,0.00,71.589996,,2013-02-03 01:11:00,
2013-02-02 18:11:00,41.0,36.0,-100.00,NNW,331,3.0,5.0,81,-99.99,,,0.00,5.230000,,2013-02-03 02:11:00,
2013-02-02 19:11:00,39.0,35.0,-100.00,East,84,3.0,4.0,85,-99.99,,,0.00,0.000000,,2013-02-03 03:11:00,
2013-02-02 20:11:00,37.0,34.0,-100.00,ENE,69,3.0,5.0,88,-99.99,,,0.00,0.000000,,2013-02-03 04:11:00,
2013-02-02 21:11:00,34.0,32.0,-100.00,ENE,65,4.0,7.0,91,-99.99,,,0.00,0.000000,,2013-02-03 05:11:00,
2013-02-02 22:11:00,32.0,30.0,-100.00,ESE,116,1.0,3.0,92,-99.99,,,0.00,0.000000,,2013-02-03 06:11:00,
2013-02-02 23:11:00,31.0,29.0,-100.00,East,91,3.0,5.0,93,-99.99,,,0.00,0.000000,,2013-02-03 07:11:00,